Portada
METAR-TAF:

METAR-TAF

Aeropuertos :

Nuakchot, Mauritania

Aeropuerto Internacional de Nuakchot

latitud: 18-18-36N, longitud: 015-58-11W, altitud: 3 m

Observación

El informe se hizo hace 22 minutos, a las 01:00 UTC
Viento 6 kt del noreste
Temperatura 15°C
Humedad 17%
Presión 1014 hPa
Visibilidad: 8000 m

METAR: GQNO 240100Z 05006KT 8000 NSC 15/M10 Q1014 NOSIG

Hora: 01:22 (01:22 UTC)

Pronóstico

El informe se hizo hace 2 horas y 22 minutos, a las 23:00 UTC
Pronóstico válido del 24 a las 00 UTC al 25 a las 06 UTC
Viento 8 kt del este-noreste
Visibilidad: 8000 m
Evolucionando progresivamente
del 24 a las 08 UTC al 24 a las 10 UTC
Viento 14 kt del este
Visibilidad: 4000 m
Ventisca alta de polvo
Evolucionando progresivamente
del 24 a las 16 UTC al 24 a las 19 UTC
Viento 8 kt del noreste
Visibilidad: 7000 m

TAF: GQNO 232300Z 2400/2506 06008KT 8000 NSC BECMG 2408/2410 09014KT 4000 BLDU BECMG 2416/2419 05008KT 7000 NSW

Observaciones y pronósticos meteorológicos de más de 4000 aeropuertos (mensajes METAR y TAF).

Los puntos amarillos y rojos representan las estaciones disponibles.

Ponga el ratón en el punto deseado para ver el nombre de la estación.

Haga clic para ver las observaciones y los pronósticos meteorológicos.

Para cambiar el mapa : haga clic en los botones verdes con una cruz de color negro para hacer un zoom, en el botón verde con un guión para alejar o en las flechas verdes para mapas adyacentes.


METAR-TAF: